Tom Cotton — WDI2387 — position and weather

sailwx.info

Track history (hours):
 
Tides and Currents Weather Stations Pressure Air Temp Water Temp Dewpoint Dewpoint Depression Visibility Wind Speed Wind Dir Waves Ship Positions

Tom Cotton

Owner: Blessey Enterprises, Inc., Harahan, LA. More information available from US FCC via Universal Licensing System and Coast Guard Vessel Documentation Center.

Last reported at 2017-Sep-19 20:30 UTC. Time now 2017-Sep-19 20:46 UTC.
Position N 30°05' W 093°20'.

Length 21 m; draft 2.7 m.

Type: Towing. MMSI: 367677650.

Date/timePositionNaut miles runAvg speedWind from/ knotsBaromVisibWave heightAir tempDewpointWater temp
2017-Sep-19 20:30N 30°05' W 093°20'0 0.0
2017-Sep-19 20:00N 30°05' W 093°20'0 0.0
2017-Sep-19 19:30N 30°05' W 093°20'0 0.0
2017-Sep-19 19:00N 30°05' W 093°20'0 0.0
2017-Sep-19 18:30N 30°05' W 093°20'0 0.0
2017-Sep-19 18:00N 30°05' W 093°20'0 0.0
2017-Sep-19 17:30N 30°05' W 093°20'0 0.0
2017-Sep-19 17:00N 30°05' W 093°20'0 0.0
2017-Sep-19 16:30N 30°05' W 093°20'0 0.0
2017-Sep-19 15:59N 30°05' W 093°20'0 0.0
2017-Sep-19 15:29N 30°05' W 093°20'0 0.0
2017-Sep-19 15:00N 30°05' W 093°20'0 0.0
2017-Sep-19 14:30N 30°05' W 093°20'0 0.0
2017-Sep-19 14:00N 30°05' W 093°20'0 0.0
2017-Sep-19 13:30N 30°05' W 093°20'0 0.0
2017-Sep-19 13:00N 30°05' W 093°20'0 0.0
2017-Sep-19 12:30N 30°05' W 093°20'0 0.0
2017-Sep-19 12:00N 30°05' W 093°20'0 0.0
2017-Sep-19 11:30N 30°05' W 093°20'0 0.0
2017-Sep-19 11:00N 30°05' W 093°20'0 0.0
2017-Sep-19 10:30N 30°05' W 093°20'0 0.0
2017-Sep-19 10:00N 30°05' W 093°20'0 0.0
2017-Sep-19 09:30N 30°05' W 093°20'0 0.0
2017-Sep-19 09:00N 30°05' W 093°20'0 0.0
2017-Sep-19 08:30N 30°05' W 093°20'0 0.0
2017-Sep-19 08:00N 30°05' W 093°20'0 0.0
2017-Sep-19 07:30N 30°05' W 093°20'0 0.0
2017-Sep-19 07:00N 30°05' W 093°20'0 0.0
2017-Sep-19 06:30N 30°05' W 093°20'0 0.0
2017-Sep-19 06:00N 30°05' W 093°20'0 0.0
2017-Sep-19 05:30N 30°05' W 093°20'0 0.0
2017-Sep-19 05:00N 30°05' W 093°20'0 0.0
2017-Sep-19 04:30N 30°05' W 093°20'0 0.0
2017-Sep-19 04:00N 30°05' W 093°20'0 0.0
2017-Sep-19 03:30N 30°05' W 093°20'0 0.0
2017-Sep-19 03:00N 30°05' W 093°20'0 0.0
2017-Sep-19 02:30N 30°05' W 093°20'0 0.0
2017-Sep-19 02:00N 30°05' W 093°20'0 0.0
2017-Sep-19 01:30N 30°05' W 093°20'2 3.8
2017-Sep-19 01:00N 30°06' W 093°18'0 0.0
2017-Sep-19 00:30N 30°06' W 093°18'0 0.4
2017-Sep-19 00:00N 30°06' W 093°19'2 3.4
2017-Sep-18 23:30N 30°05' W 093°20'2 3.9
2017-Sep-18 23:00N 30°05' W 093°18'2 3.3
2017-Sep-18 22:30N 30°04' W 093°16'3 5.7
2017-Sep-18 22:00N 30°02' W 093°15'3 5.5
2017-Sep-18 21:30N 29°59' W 093°13'3 6.8
2017-Sep-18 21:00N 29°57' W 093°10'3 6.2
2017-Sep-18 20:30N 29°56' W 093°07'3 6.7
2017-Sep-18 20:00N 29°56' W 093°03'37 6.0
2017-Sep-18 13:52N 29°51' W 092°21'2 6.2
2017-Sep-18 13:29N 29°50' W 092°18'3 6.0
2017-Sep-18 13:00N 29°48' W 092°16'3 6.5
2017-Sep-18 12:30N 29°47' W 092°12'2 3.2
2017-Sep-18 12:00N 29°47' W 092°10'3 6.1
2017-Sep-18 11:30N 29°47' W 092°07'3 6.3
2017-Sep-18 11:00N 29°49' W 092°04'3 6.6
2017-Sep-18 10:30N 29°50' W 092°00'55 5.9
2017-Sep-18 01:07N 29°36' W 090°58'1 6.5
2017-Sep-18 01:00N 29°35' W 090°58'3 6.3
2017-Sep-18 00:30N 29°33' W 090°55'4 6.4
2017-Sep-17 23:56N 29°32' W 090°51'3 6.6
2017-Sep-17 23:30N 29°32' W 090°48'3 5.6
2017-Sep-17 23:00N 29°34' W 090°45'2 5.0
2017-Sep-17 22:30N 29°35' W 090°43'2 3.9
2017-Sep-17 22:00N 29°36' W 090°41'3 6.3
2017-Sep-17 21:30N 29°35' W 090°38'3 6.1
2017-Sep-17 21:00N 29°34' W 090°34'3 6.3
2017-Sep-17 20:30N 29°34' W 090°31'4 6.5
2017-Sep-17 19:57N 29°33' W 090°27'  
Track history (hours):
 
Tides and Currents Weather Stations Pressure Air Temp Water Temp Dewpoint Dewpoint Depression Visibility Wind Speed Wind Dir Waves Ship Positions

Tom Cotton

Owner: Blessey Enterprises, Inc., Harahan, LA. More information available from US FCC via Universal Licensing System and Coast Guard Vessel Documentation Center.

Last reported at 2017-Sep-19 20:30 UTC. Time now 2017-Sep-19 20:46 UTC.
Position N 30°05' W 093°20'.

Length 21 m; draft 2.7 m.

Type: Towing. MMSI: 367677650.

Date/timePositionNaut miles runAvg speedWind from/ knotsBaromVisibWave heightAir tempDewpointWater temp
2017-Sep-19 20:30N 30°05' W 093°20'0 0.0
2017-Sep-19 20:00N 30°05' W 093°20'0 0.0
2017-Sep-19 19:30N 30°05' W 093°20'0 0.0
2017-Sep-19 19:00N 30°05' W 093°20'0 0.0
2017-Sep-19 18:30N 30°05' W 093°20'0 0.0
2017-Sep-19 18:00N 30°05' W 093°20'0 0.0
2017-Sep-19 17:30N 30°05' W 093°20'0 0.0
2017-Sep-19 17:00N 30°05' W 093°20'0 0.0
2017-Sep-19 16:30N 30°05' W 093°20'0 0.0
2017-Sep-19 15:59N 30°05' W 093°20'0 0.0
2017-Sep-19 15:29N 30°05' W 093°20'0 0.0
2017-Sep-19 15:00N 30°05' W 093°20'0 0.0
2017-Sep-19 14:30N 30°05' W 093°20'0 0.0
2017-Sep-19 14:00N 30°05' W 093°20'0 0.0
2017-Sep-19 13:30N 30°05' W 093°20'0 0.0
2017-Sep-19 13:00N 30°05' W 093°20'0 0.0
2017-Sep-19 12:30N 30°05' W 093°20'0 0.0
2017-Sep-19 12:00N 30°05' W 093°20'0 0.0
2017-Sep-19 11:30N 30°05' W 093°20'0 0.0
2017-Sep-19 11:00N 30°05' W 093°20'0 0.0
2017-Sep-19 10:30N 30°05' W 093°20'0 0.0
2017-Sep-19 10:00N 30°05' W 093°20'0 0.0
2017-Sep-19 09:30N 30°05' W 093°20'0 0.0
2017-Sep-19 09:00N 30°05' W 093°20'0 0.0
2017-Sep-19 08:30N 30°05' W 093°20'0 0.0
2017-Sep-19 08:00N 30°05' W 093°20'0 0.0
2017-Sep-19 07:30N 30°05' W 093°20'0 0.0
2017-Sep-19 07:00N 30°05' W 093°20'0 0.0
2017-Sep-19 06:30N 30°05' W 093°20'0 0.0
2017-Sep-19 06:00N 30°05' W 093°20'0 0.0
2017-Sep-19 05:30N 30°05' W 093°20'0 0.0
2017-Sep-19 05:00N 30°05' W 093°20'0 0.0
2017-Sep-19 04:30N 30°05' W 093°20'0 0.0
2017-Sep-19 04:00N 30°05' W 093°20'0 0.0
2017-Sep-19 03:30N 30°05' W 093°20'0 0.0
2017-Sep-19 03:00N 30°05' W 093°20'0 0.0
2017-Sep-19 02:30N 30°05' W 093°20'0 0.0
2017-Sep-19 02:00N 30°05' W 093°20'0 0.0
2017-Sep-19 01:30N 30°05' W 093°20'2 3.8
2017-Sep-19 01:00N 30°06' W 093°18'0 0.0
2017-Sep-19 00:30N 30°06' W 093°18'0 0.4
2017-Sep-19 00:00N 30°06' W 093°19'2 3.4
2017-Sep-18 23:30N 30°05' W 093°20'2 3.9
2017-Sep-18 23:00N 30°05' W 093°18'2 3.3
2017-Sep-18 22:30N 30°04' W 093°16'3 5.7
2017-Sep-18 22:00N 30°02' W 093°15'3 5.5
2017-Sep-18 21:30N 29°59' W 093°13'3 6.8
2017-Sep-18 21:00N 29°57' W 093°10'3 6.2
2017-Sep-18 20:30N 29°56' W 093°07'3 6.7
2017-Sep-18 20:00N 29°56' W 093°03'37 6.0
2017-Sep-18 13:52N 29°51' W 092°21'2 6.2
2017-Sep-18 13:29N 29°50' W 092°18'3 6.0
2017-Sep-18 13:00N 29°48' W 092°16'3 6.5
2017-Sep-18 12:30N 29°47' W 092°12'2 3.2
2017-Sep-18 12:00N 29°47' W 092°10'3 6.1
2017-Sep-18 11:30N 29°47' W 092°07'3 6.3
2017-Sep-18 11:00N 29°49' W 092°04'3 6.6
2017-Sep-18 10:30N 29°50' W 092°00'55 5.9
2017-Sep-18 01:07N 29°36' W 090°58'1 6.5
2017-Sep-18 01:00N 29°35' W 090°58'3 6.3
2017-Sep-18 00:30N 29°33' W 090°55'4 6.4
2017-Sep-17 23:56N 29°32' W 090°51'3 6.6
2017-Sep-17 23:30N 29°32' W 090°48'3 5.6
2017-Sep-17 23:00N 29°34' W 090°45'2 5.0
2017-Sep-17 22:30N 29°35' W 090°43'2 3.9
2017-Sep-17 22:00N 29°36' W 090°41'3 6.3
2017-Sep-17 21:30N 29°35' W 090°38'3 6.1
2017-Sep-17 21:00N 29°34' W 090°34'3 6.3
2017-Sep-17 20:30N 29°34' W 090°31'4 6.5
2017-Sep-17 19:57N 29°33' W 090°27'  

Dump ship's entire track history